Sneads, FL

2:11 PM CDT on July 24, 2014 (GMT -0500)
Bonifay (K1J0) Elev 85 ft | 30.85 °N, 85.60 °W | Change Station

Current weather conditions updated 13 minutes ago

Scattered Clouds
Scattered Clouds
81 °F
Feels Like 87 °F
N
6
Wind Variable Wind from South

Today is forecast to be Much Warmer than yesterday.

Today
High -- | Low -- °F
--% Chance of Precip.
Yesterday
High -- | Low -- °F
Precip. -- in
5:52 AM 7:39 PM
Waning Crescent, 4% visible
Pressure 29.88 in
Visibility 10.0 miles
Clouds Few 4700 ft
Scattered Clouds 10000 ft
Scattered Clouds 12000 ft
Heat Index 87 °F
Dew Point 75 °F
Humidity 82%
Rainfall 0.05 in
Snow Depth Not available.
UV 10 out of 12
Pollen 3.60 out of 12
Air Quality Not available.
Flu Activity Not available.
METAR K1J0 241858Z AUTO 19005KT 10SM FEW047 SCT100 SCT120 27/24 A3000 RMK AO2 RAB00E10B27E54 SLP117 P0000 T02720239

More Conditions Fewer Conditions

Pressure 29.88 in
Visibility 10.0 miles
Clouds Few 4700 ft
Scattered Clouds 10000 ft
Scattered Clouds 12000 ft
Heat Index 87 °F
Dew Point 75 °F
Humidity 82%
Rainfall 0.05 in
Snow Depth Not available.
UV 10 out of 12
Pollen 3.60 out of 12
Air Quality Not available.
Flu Activity Not available.
METAR K1J0 241858Z AUTO 19005KT 10SM FEW047 SCT100 SCT120 27/24 A3000 RMK AO2 RAB00E10B27E54 SLP117 P0000 T02720239

More Conditions Fewer Conditions

10-Day Weather Forecast

Almanac

Astronomy

Jul. 24, 2014 Rise Set
Actual Time 5:52 AM CDT 7:39 PM CDT
Civil Twilight 5:25 AM CDT 8:06 PM CDT
Nautical Twilight 4:53 AM CDT 8:38 PM CDT
Astronomical Twilight 4:19 AM CDT 9:12 PM CDT
Moon 3:58 AM CDT 5:56 PM CDT
Length of Visible Light 14h 40m
Length of Day
13h 47m
Tomorrow will be 1m 13s shorter.
Waning Crescent, 4% of the Moon is Illuminated
Today
Waning Crescent
Jul 26
New
Aug 3
First Quarter
Aug 10
Full
Aug 17
Last Quarter

Today's Extremes

State Highs State Lows

Community

WunderPhotos

Upload Photos

1,737,094 photos uploaded!

Nearby

Snow Depth

Station Depth Elevation
No new snow has been reported.

Earthquake Activity

City Distance Mag. Time & Date
No recent earthquake activity has been reported nearby.
Minimum magnitude displayed is 2.5.

Coastal Water Temperatures

Place Temperature
No Stations Reporting

Nearby Weather Stations

Station Location Temp. Heat Index Dew Point Humidity Wind Precip. Elev Updated Type
Cypress, Marianna, FL 86.6 °F 110 °F 84 °F 94% SW  at  4.4 mph 0.00 in / hr 138 ft 2:11 PM CDT Rapid Fire
Blountstown, FL 79.6 °F 85 °F 77 °F 92% NW  at  3.0 mph 0.08 in / hr 76 ft 1:36 PM CDT Rapid Fire

Show More Stations Show Fewer Stations